createdAt,value
2023-01-29T00:00:51.802Z,-3.395
2023-01-29T00:01:51.862Z,-3.412
2023-01-29T00:02:51.911Z,-3.412
2023-01-29T00:03:51.889Z,-3.428
2023-01-29T00:04:51.920Z,-3.462
2023-01-29T00:05:51.970Z,-3.434
2023-01-29T00:06:51.998Z,-3.395
2023-01-29T00:07:52.072Z,-3.4
2023-01-29T00:08:52.095Z,-3.36
2023-01-29T00:09:52.111Z,-3.377
2023-01-29T00:10:52.157Z,-3.428
2023-01-29T00:11:52.189Z,-3.378
2023-01-29T00:12:52.242Z,-3.345
2023-01-29T00:13:52.288Z,-3.395
2023-01-29T00:14:52.299Z,-3.395
2023-01-29T00:15:52.341Z,-3.378
2023-01-29T00:16:52.401Z,-3.345
2023-01-29T00:17:52.433Z,-3.343
2023-01-29T00:18:52.473Z,-3.36
2023-01-29T00:19:52.515Z,-3.31
2023-01-29T00:20:52.537Z,-3.327
2023-01-29T00:21:52.563Z,-3.36
2023-01-29T00:22:52.604Z,-3.36
2023-01-29T00:23:52.660Z,-3.36
2023-01-29T00:24:52.711Z,-3.327
2023-01-29T00:25:52.725Z,-3.327
2023-01-29T00:26:52.763Z,-3.343
2023-01-29T00:27:52.798Z,-3.343
2023-01-29T00:28:52.823Z,-3.343
2023-01-29T00:29:52.880Z,-3.36
2023-01-29T00:30:52.934Z,-3.36
2023-01-29T00:31:53.051Z,-3.36
2023-01-29T00:32:52.970Z,-3.36
2023-01-29T00:33:53.019Z,-3.343
2023-01-29T00:34:53.042Z,-3.327
2023-01-29T00:35:53.100Z,-3.31
2023-01-29T00:36:53.121Z,-3.316
2023-01-29T00:37:53.153Z,-3.299
2023-01-29T00:38:53.205Z,-3.249
2023-01-29T00:39:53.247Z,-3.231
2023-01-29T00:40:53.266Z,-3.242
2023-01-29T00:41:53.297Z,-3.209
2023-01-29T00:42:53.336Z,-3.226
2023-01-29T00:43:53.367Z,-3.209
2023-01-29T00:44:53.397Z,-3.226
2023-01-29T00:45:53.439Z,-3.203
2023-01-29T00:46:53.609Z,-3.22
2023-01-29T00:47:53.551Z,-3.236
2023-01-29T00:48:53.551Z,-3.236
2023-01-29T00:49:53.593Z,-3.22
2023-01-29T00:50:53.639Z,-3.22
2023-01-29T00:51:53.671Z,-3.22
2023-01-29T00:52:53.749Z,-3.203
2023-01-29T00:53:53.758Z,-3.203
2023-01-29T00:54:53.808Z,-3.182
2023-01-29T00:55:53.823Z,-3.198
2023-01-29T00:56:53.871Z,-3.198
2023-01-29T00:57:53.907Z,-3.198
2023-01-29T00:58:53.947Z,-3.215
2023-01-29T00:59:53.986Z,-3.215
2023-01-29T01:00:54.042Z,-3.215
2023-01-29T01:01:54.175Z,-3.215
2023-01-29T01:02:54.090Z,-3.231
2023-01-29T01:03:54.141Z,-3.231
2023-01-29T01:04:54.185Z,-3.198
2023-01-29T01:05:54.222Z,-3.215
2023-01-29T01:06:54.260Z,-3.198
2023-01-29T01:07:54.298Z,-3.215
2023-01-29T01:08:54.340Z,-3.215
2023-01-29T01:09:54.366Z,-3.182
2023-01-29T01:10:54.408Z,-3.182
2023-01-29T01:11:54.445Z,-3.165
2023-01-29T01:12:54.479Z,-3.165
2023-01-29T01:13:54.521Z,-3.148
2023-01-29T01:14:54.563Z,-3.148
2023-01-29T01:15:54.641Z,-3.148
2023-01-29T01:16:54.639Z,-3.148
2023-01-29T01:17:54.687Z,-3.148
2023-01-29T01:18:54.730Z,-3.165
2023-01-29T01:19:54.746Z,-3.148
2023-01-29T01:20:54.777Z,-3.165
2023-01-29T01:21:54.810Z,-3.165
2023-01-29T01:22:54.853Z,-3.148
2023-01-29T01:23:54.967Z,-3.132
2023-01-29T01:24:54.930Z,-3.148
2023-01-29T01:25:54.960Z,-3.132
2023-01-29T01:26:55.002Z,-3.132
2023-01-29T01:27:55.027Z,-3.115
2023-01-29T01:28:55.066Z,-3.099
2023-01-29T01:29:55.105Z,-3.081
2023-01-29T01:30:55.254Z,-3.081
2023-01-29T01:31:55.184Z,-3.063
2023-01-29T01:32:55.211Z,-3.096
2023-01-29T01:33:55.243Z,-3.079
2023-01-29T01:34:55.287Z,-3.079
2023-01-29T01:35:55.326Z,-3.079
2023-01-29T01:36:55.358Z,-3.046
2023-01-29T01:37:55.399Z,-3.046
2023-01-29T01:38:55.438Z,-3.063
2023-01-29T01:39:55.469Z,-3.03
2023-01-29T01:40:55.536Z,-3.03
2023-01-29T01:41:55.564Z,-3.03
2023-01-29T01:42:55.585Z,-3.03
2023-01-29T01:43:55.638Z,-3.046
2023-01-29T01:44:55.666Z,-3.03
2023-01-29T01:45:55.747Z,-3.03
2023-01-29T01:46:55.728Z,-2.991
2023-01-29T01:47:55.766Z,-2.991
2023-01-29T01:48:55.799Z,-2.974
2023-01-29T01:49:55.840Z,-2.958
2023-01-29T01:50:55.875Z,-2.941
2023-01-29T01:51:55.905Z,-2.968
2023-01-29T01:52:55.956Z,-2.974
2023-01-29T01:53:55.983Z,-2.974
2023-01-29T01:54:56.017Z,-2.968
2023-01-29T01:55:56.058Z,-2.968
2023-01-29T01:56:56.095Z,-2.968
2023-01-29T01:57:56.110Z,-2.968
2023-01-29T01:58:56.149Z,-2.985
2023-01-29T01:59:56.178Z,-2.968
2023-01-29T02:00:56.268Z,-2.952
2023-01-29T02:01:56.317Z,-2.935
2023-01-29T02:02:56.295Z,-2.952
2023-01-29T02:03:56.323Z,-2.935
2023-01-29T02:04:56.366Z,-2.93
2023-01-29T02:05:56.423Z,-2.968
2023-01-29T02:06:56.435Z,-2.935
2023-01-29T02:07:56.479Z,-2.935
2023-01-29T02:08:56.509Z,-2.919
2023-01-29T02:09:56.539Z,-2.952
2023-01-29T02:10:56.586Z,-2.952
2023-01-29T02:11:56.610Z,-2.919
2023-01-29T02:12:56.664Z,-2.935
2023-01-29T02:13:56.690Z,-2.919
2023-01-29T02:14:56.728Z,-2.935
2023-01-29T02:15:56.764Z,-2.935
2023-01-29T02:16:56.813Z,-2.935
2023-01-29T02:17:56.840Z,-2.919
2023-01-29T02:18:56.881Z,-2.935
2023-01-29T02:19:56.910Z,-2.919
2023-01-29T02:20:56.952Z,-2.902
2023-01-29T02:21:56.974Z,-2.902
2023-01-29T02:22:57.017Z,-2.886
2023-01-29T02:23:57.164Z,-2.886
2023-01-29T02:24:57.089Z,-2.886
2023-01-29T02:25:57.144Z,-2.886
2023-01-29T02:26:57.157Z,-2.87
2023-01-29T02:27:57.185Z,-2.87
2023-01-29T02:28:57.237Z,-2.87
2023-01-29T02:29:57.268Z,-2.853
2023-01-29T02:30:57.361Z,-2.853
2023-01-29T02:31:57.387Z,-2.837
2023-01-29T02:32:57.369Z,-2.837
2023-01-29T02:33:57.399Z,-2.799
2023-01-29T02:34:57.454Z,-2.821
2023-01-29T02:35:57.492Z,-2.804
2023-01-29T02:36:57.511Z,-2.783
2023-01-29T02:37:57.546Z,-2.804
2023-01-29T02:38:57.577Z,-2.783
2023-01-29T02:39:57.614Z,-2.783
2023-01-29T02:40:57.639Z,-2.783
2023-01-29T02:41:57.687Z,-2.766
2023-01-29T02:42:57.719Z,-2.766
2023-01-29T02:43:57.772Z,-2.766
2023-01-29T02:44:57.797Z,-2.766
2023-01-29T02:45:57.870Z,-2.766
2023-01-29T02:46:57.853Z,-2.766
2023-01-29T02:47:57.908Z,-2.766
2023-01-29T02:48:57.920Z,-2.766
2023-01-29T02:49:57.957Z,-2.766
2023-01-29T02:50:58.013Z,-2.744
2023-01-29T02:51:58.056Z,-2.75
2023-01-29T02:52:58.158Z,-2.783
2023-01-29T02:53:58.125Z,-2.766
2023-01-29T02:54:58.152Z,-2.75
2023-01-29T02:55:58.189Z,-2.766
2023-01-29T02:56:58.225Z,-2.75
2023-01-29T02:57:58.279Z,-2.772
2023-01-29T02:58:58.293Z,-2.772
2023-01-29T02:59:58.321Z,-2.772
2023-01-29T03:00:58.381Z,-2.755
2023-01-29T03:01:58.444Z,-2.739
2023-01-29T03:02:58.476Z,-2.723
2023-01-29T03:03:58.459Z,-2.739
2023-01-29T03:04:58.503Z,-2.739
2023-01-29T03:05:58.543Z,-2.723
2023-01-29T03:06:58.585Z,-2.739
2023-01-29T03:07:58.608Z,-2.739
2023-01-29T03:08:58.651Z,-2.772
2023-01-29T03:09:58.687Z,-2.739
2023-01-29T03:10:58.718Z,-2.723
2023-01-29T03:11:58.755Z,-2.745
2023-01-29T03:12:58.784Z,-2.762
2023-01-29T03:13:58.834Z,-2.745
2023-01-29T03:14:58.861Z,-2.745
2023-01-29T03:15:58.894Z,-2.729
2023-01-29T03:16:58.935Z,-2.713
2023-01-29T03:17:58.972Z,-2.729
2023-01-29T03:18:59.000Z,-2.713
2023-01-29T03:19:59.044Z,-2.674
2023-01-29T03:20:59.100Z,-2.691
2023-01-29T03:21:59.360Z,-2.691
2023-01-29T03:22:59.138Z,-2.707
2023-01-29T03:23:59.190Z,-2.674
2023-01-29T03:24:59.226Z,-2.658
2023-01-29T03:25:59.291Z,-2.658
2023-01-29T03:26:59.292Z,-2.658
2023-01-29T03:27:59.316Z,-2.665
2023-01-29T03:28:59.343Z,-2.642
2023-01-29T03:29:59.385Z,-2.642
2023-01-29T03:30:59.541Z,-2.642
2023-01-29T03:31:59.550Z,-2.642
2023-01-29T03:32:59.493Z,-2.658
2023-01-29T03:33:59.521Z,-2.642
2023-01-29T03:34:59.561Z,-2.637
2023-01-29T03:35:59.607Z,-2.637
2023-01-29T03:36:59.632Z,-2.637
2023-01-29T03:37:59.673Z,-2.637
2023-01-29T03:38:59.730Z,-2.637
2023-01-29T03:39:59.754Z,-2.62
2023-01-29T03:40:59.789Z,-2.637
2023-01-29T03:41:59.827Z,-2.62
2023-01-29T03:42:59.865Z,-2.569
2023-01-29T03:43:59.901Z,-2.569
2023-01-29T03:44:59.934Z,-2.569
2023-01-29T03:46:00.057Z,-2.537
2023-01-29T03:47:00.007Z,-2.505
2023-01-29T03:48:00.051Z,-2.457
2023-01-29T03:49:00.138Z,-2.412
2023-01-29T03:50:00.142Z,-2.364
2023-01-29T03:51:00.175Z,-2.317
2023-01-29T03:52:00.201Z,-2.27
2023-01-29T03:53:00.246Z,-2.207
2023-01-29T03:54:00.282Z,-2.166
2023-01-29T03:55:00.313Z,-2.119
2023-01-29T03:56:00.353Z,-2.057
2023-01-29T03:57:00.377Z,-2.026
2023-01-29T03:58:00.432Z,-2.01
2023-01-29T03:59:00.452Z,-1.964
2023-01-29T04:00:00.495Z,-1.956
2023-01-29T04:01:00.512Z,-1.956
2023-01-29T04:02:00.551Z,-1.894
2023-01-29T04:03:00.598Z,-1.901
2023-01-29T04:04:00.656Z,-1.856
2023-01-29T04:05:00.654Z,-1.878
2023-01-29T04:06:00.693Z,-1.84
2023-01-29T04:07:00.732Z,-1.825
2023-01-29T04:08:00.764Z,-1.81
2023-01-29T04:09:00.809Z,-1.795
2023-01-29T04:10:00.832Z,-1.78
2023-01-29T04:11:00.933Z,-1.802
2023-01-29T04:12:00.895Z,-1.787
2023-01-29T04:13:00.946Z,-1.787
2023-01-29T04:14:01.014Z,-1.772
2023-01-29T04:15:01.026Z,-1.742
2023-01-29T04:16:01.062Z,-1.742
2023-01-29T04:17:01.089Z,-1.727
2023-01-29T04:18:01.131Z,-1.712
2023-01-29T04:19:01.204Z,-1.697
2023-01-29T04:20:01.179Z,-1.682
2023-01-29T04:21:01.231Z,-1.712
2023-01-29T04:22:01.261Z,-1.697
2023-01-29T04:23:01.303Z,-1.697
2023-01-29T04:24:01.347Z,-1.712
2023-01-29T04:25:01.369Z,-1.727
2023-01-29T04:26:01.403Z,-1.727
2023-01-29T04:27:01.425Z,-1.727
2023-01-29T04:28:01.465Z,-1.742
2023-01-29T04:29:01.544Z,-1.742
2023-01-29T04:30:01.593Z,-1.742
2023-01-29T04:31:01.809Z,-1.742
2023-01-29T04:32:01.621Z,-1.757
2023-01-29T04:33:01.660Z,-1.757
2023-01-29T04:34:01.697Z,-1.757
2023-01-29T04:35:01.766Z,-1.727
2023-01-29T04:36:01.777Z,-1.742
2023-01-29T04:37:01.818Z,-1.727
2023-01-29T04:38:01.857Z,-1.697
2023-01-29T04:39:01.897Z,-1.712
2023-01-29T04:40:01.935Z,-1.727
2023-01-29T04:41:01.958Z,-1.727
2023-01-29T04:42:01.997Z,-1.742
2023-01-29T04:43:02.037Z,-1.757
2023-01-29T04:44:02.071Z,-1.772
2023-01-29T04:45:02.126Z,-1.681
2023-01-29T04:46:02.135Z,-1.696
2023-01-29T04:47:02.241Z,-1.696
2023-01-29T04:48:02.221Z,-1.739
2023-01-29T04:49:02.260Z,-1.666
2023-01-29T04:50:02.298Z,-1.681
2023-01-29T04:51:02.352Z,-1.681
2023-01-29T04:52:02.360Z,-1.666
2023-01-29T04:53:02.399Z,-1.666
2023-01-29T04:54:02.427Z,-1.651
2023-01-29T04:55:02.470Z,-1.651
2023-01-29T04:56:02.521Z,-1.636
2023-01-29T04:57:02.591Z,-1.666
2023-01-29T04:58:02.582Z,-1.681
2023-01-29T04:59:02.617Z,-1.658
2023-01-29T05:00:02.685Z,-1.681
2023-01-29T05:01:02.707Z,-1.643
2023-01-29T05:02:02.779Z,-1.651
2023-01-29T05:03:02.863Z,-1.651
2023-01-29T05:04:02.823Z,-1.613
2023-01-29T05:05:02.852Z,-1.613
2023-01-29T05:06:02.886Z,-1.613
2023-01-29T05:07:02.926Z,-1.583
2023-01-29T05:08:02.965Z,-1.568
2023-01-29T05:09:03.010Z,-1.531
2023-01-29T05:10:03.042Z,-1.501
2023-01-29T05:11:03.077Z,-1.471
2023-01-29T05:12:03.120Z,-1.456
2023-01-29T05:13:03.167Z,-1.426
2023-01-29T05:14:03.193Z,-1.396
2023-01-29T05:15:03.248Z,-1.396
2023-01-29T05:16:03.326Z,-1.381
2023-01-29T05:17:03.315Z,-1.367
2023-01-29T05:18:03.341Z,-1.352
2023-01-29T05:19:03.380Z,-1.352
2023-01-29T05:20:03.431Z,-1.352
2023-01-29T05:21:03.442Z,-1.352
2023-01-29T05:22:03.488Z,-1.352
2023-01-29T05:23:03.530Z,-1.352
2023-01-29T05:24:03.597Z,-1.352
2023-01-29T05:25:03.617Z,-1.352
2023-01-29T05:26:03.633Z,-1.337
2023-01-29T05:27:03.677Z,-1.352
2023-01-29T05:28:03.713Z,-1.367
2023-01-29T05:29:03.751Z,-1.352
2023-01-29T05:30:03.806Z,-1.352
2023-01-29T05:31:03.962Z,-1.344
2023-01-29T05:32:03.834Z,-1.374
2023-01-29T05:33:03.872Z,-1.355
2023-01-29T05:34:03.903Z,-1.338
2023-01-29T05:35:03.952Z,-1.376
2023-01-29T05:36:04.143Z,-1.361
2023-01-29T05:37:04.047Z,-1.323
2023-01-29T05:38:04.053Z,-1.338
2023-01-29T05:39:04.107Z,-1.353
2023-01-29T05:40:04.137Z,-1.338
2023-01-29T05:41:04.173Z,-1.353
2023-01-29T05:42:04.238Z,-1.353
2023-01-29T05:43:04.259Z,-1.368
2023-01-29T05:44:04.300Z,-1.383
2023-01-29T05:45:04.400Z,-1.383
2023-01-29T05:46:04.392Z,-1.398
2023-01-29T05:47:04.440Z,-1.398
2023-01-29T05:48:04.460Z,-1.398
2023-01-29T05:49:04.497Z,-1.413
2023-01-29T05:50:04.528Z,-1.39
2023-01-29T05:51:04.573Z,-1.413
2023-01-29T05:52:04.617Z,-1.428
2023-01-29T05:53:04.645Z,-1.413
2023-01-29T05:54:04.679Z,-1.398
2023-01-29T05:55:04.732Z,-1.345
2023-01-29T05:56:04.785Z,-1.395
2023-01-29T05:57:04.826Z,-1.408
2023-01-29T05:58:06.051Z,-1.408
2023-01-29T05:59:04.869Z,-1.37
2023-01-29T06:00:04.896Z,-1.385
2023-01-29T06:01:04.944Z,-1.385
2023-01-29T06:02:05.007Z,-1.4
2023-01-29T06:03:05.081Z,-1.415
2023-01-29T06:04:05.069Z,-1.415
2023-01-29T06:05:05.104Z,-1.415
2023-01-29T06:06:05.137Z,-1.392
2023-01-29T06:07:05.175Z,-1.392
2023-01-29T06:08:05.207Z,-1.407
2023-01-29T06:09:05.230Z,-1.392
2023-01-29T06:10:05.275Z,-1.422
2023-01-29T06:11:05.327Z,-1.437
2023-01-29T06:12:05.342Z,-1.453
2023-01-29T06:13:05.376Z,-1.453
2023-01-29T06:14:05.420Z,-1.453
2023-01-29T06:15:05.455Z,-1.437
2023-01-29T06:16:05.537Z,-1.453
2023-01-29T06:17:05.544Z,-1.437
2023-01-29T06:18:05.577Z,-1.422
2023-01-29T06:19:05.608Z,-1.4
2023-01-29T06:20:05.639Z,-1.422
2023-01-29T06:21:05.692Z,-1.415
2023-01-29T06:22:05.742Z,-1.415
2023-01-29T06:23:05.751Z,-1.415
2023-01-29T06:24:05.816Z,-1.415
2023-01-29T06:25:05.812Z,-1.38
2023-01-29T06:26:05.843Z,-1.395
2023-01-29T06:27:05.908Z,-1.395
2023-01-29T06:28:05.922Z,-1.395
2023-01-29T06:29:05.957Z,-1.395
2023-01-29T06:30:05.995Z,-1.373
2023-01-29T06:31:22.036Z,-1.373
2023-01-29T06:32:06.157Z,-1.373
2023-01-29T06:33:06.137Z,-1.373
2023-01-29T06:34:06.152Z,-1.388
2023-01-29T06:35:06.174Z,-1.388
2023-01-29T06:36:06.225Z,-1.388
2023-01-29T06:37:06.266Z,-1.373
2023-01-29T06:38:06.355Z,-1.373
2023-01-29T06:39:06.350Z,-1.373
2023-01-29T06:40:06.390Z,-1.373
2023-01-29T06:41:06.423Z,-1.388
2023-01-29T06:42:06.459Z,-1.388
2023-01-29T06:43:06.498Z,-1.403
2023-01-29T06:44:06.555Z,-1.388
2023-01-29T06:45:06.567Z,-1.388
2023-01-29T06:46:06.604Z,-1.373
2023-01-29T06:47:06.650Z,-1.373
2023-01-29T06:48:06.677Z,-1.373
2023-01-29T06:49:06.719Z,-1.373
2023-01-29T06:50:06.757Z,-1.358
2023-01-29T06:51:06.836Z,-1.327
2023-01-29T06:52:06.829Z,-1.312
2023-01-29T06:53:06.861Z,-1.312
2023-01-29T06:54:06.894Z,-1.312
2023-01-29T06:55:06.922Z,-1.312
2023-01-29T06:56:06.958Z,-1.327
2023-01-29T06:57:06.991Z,-1.343
2023-01-29T06:58:07.035Z,-1.343
2023-01-29T06:59:07.063Z,-1.312
2023-01-29T07:00:07.109Z,-1.297
2023-01-29T07:01:07.199Z,-1.282
2023-01-29T07:02:07.294Z,-1.282
2023-01-29T07:03:07.209Z,-1.297
2023-01-29T07:04:07.248Z,-1.275
2023-01-29T07:05:07.281Z,-1.275
2023-01-29T07:06:07.309Z,-1.275
2023-01-29T07:07:07.355Z,-1.26
2023-01-29T07:08:07.394Z,-1.26
2023-01-29T07:09:07.434Z,-1.26
2023-01-29T07:10:07.469Z,-1.23
2023-01-29T07:11:07.501Z,-1.23
2023-01-29T07:12:07.532Z,-1.23
2023-01-29T07:13:07.578Z,-1.207
2023-01-29T07:14:07.623Z,-1.192
2023-01-29T07:15:07.643Z,-1.192
2023-01-29T07:16:07.800Z,-1.192
2023-01-29T07:17:07.714Z,-1.177
2023-01-29T07:18:07.786Z,-1.162
2023-01-29T07:19:07.795Z,-1.147
2023-01-29T07:20:07.819Z,-1.132
2023-01-29T07:21:07.855Z,-1.117
2023-01-29T07:22:07.892Z,-1.102
2023-01-29T07:23:07.971Z,-1.102
2023-01-29T07:24:08.031Z,-1.072
2023-01-29T07:25:08.023Z,-1.072
2023-01-29T07:26:08.053Z,-1.057
2023-01-29T07:27:08.077Z,-1.043
2023-01-29T07:28:08.123Z,-1.043
2023-01-29T07:29:08.140Z,-1.028
2023-01-29T07:30:08.188Z,-1.013
2023-01-29T07:31:08.268Z,-0.9834
2023-01-29T07:32:08.313Z,-0.9686
2023-01-29T07:33:08.291Z,-0.9539
2023-01-29T07:34:08.320Z,-0.9391
2023-01-29T07:35:08.364Z,-0.9391
2023-01-29T07:36:08.395Z,-0.9244
2023-01-29T07:37:08.464Z,-0.9244
2023-01-29T07:38:08.466Z,-0.9015
2023-01-29T07:39:08.490Z,-0.9015
2023-01-29T07:40:08.531Z,-0.9163
2023-01-29T07:41:08.562Z,-0.9163
2023-01-29T07:42:08.618Z,-0.9163
2023-01-29T07:43:08.636Z,-0.931
2023-01-29T07:44:08.668Z,-0.8558
2023-01-29T07:45:08.706Z,-0.8558
2023-01-29T07:46:08.808Z,-0.8558
2023-01-29T07:47:08.791Z,-0.841
2023-01-29T07:48:08.814Z,-0.8558
2023-01-29T07:49:08.853Z,-0.8558
2023-01-29T07:50:08.915Z,-0.8558
2023-01-29T07:51:08.917Z,-0.841
2023-01-29T07:52:08.954Z,-0.8115
2023-01-29T07:53:08.988Z,-0.8115
2023-01-29T07:54:09.033Z,-0.7821
2023-01-29T07:55:09.066Z,-0.7381
2023-01-29T07:56:09.102Z,-0.7088
2023-01-29T07:57:09.134Z,-0.7088
2023-01-29T07:58:09.164Z,-0.6942
2023-01-29T07:59:09.200Z,-0.6796
2023-01-29T08:00:09.232Z,-0.6796
2023-01-29T08:01:09.322Z,-0.665
2023-01-29T08:02:09.346Z,-0.665
2023-01-29T08:03:09.338Z,-0.6421
2023-01-29T08:04:09.365Z,-0.6275
2023-01-29T08:05:09.403Z,-0.5984
2023-01-29T08:06:09.458Z,-0.5984
2023-01-29T08:07:09.487Z,-0.5984
2023-01-29T08:08:09.513Z,-0.5694
2023-01-29T08:09:09.547Z,-0.5694
2023-01-29T08:10:09.610Z,-0.5403
2023-01-29T08:11:09.622Z,-0.5403
2023-01-29T08:12:09.657Z,-0.5259
2023-01-29T08:13:09.707Z,-0.5114
2023-01-29T08:14:09.724Z,-0.5114
2023-01-29T08:15:09.763Z,-0.5343
2023-01-29T08:16:09.827Z,-0.4825
2023-01-29T08:17:09.823Z,-0.4969
2023-01-29T08:18:09.865Z,-0.5114
2023-01-29T08:19:09.893Z,-0.5114
2023-01-29T08:20:09.924Z,-0.5259
2023-01-29T08:21:10.922Z,-0.5174
2023-01-29T08:22:09.995Z,-0.5174
2023-01-29T08:23:10.034Z,-0.5464
2023-01-29T08:24:10.069Z,-0.5464
2023-01-29T08:25:10.122Z,-0.5464
2023-01-29T08:26:10.126Z,-0.5464
2023-01-29T08:27:10.172Z,-0.561
2023-01-29T08:28:10.207Z,-0.5526
2023-01-29T08:29:10.240Z,-0.5526
2023-01-29T08:30:10.271Z,-0.5817
2023-01-29T08:31:10.394Z,-0.5817
2023-01-29T08:32:10.347Z,-0.561
2023-01-29T08:33:10.383Z,-0.5562
2023-01-29T08:34:10.410Z,-0.5562
2023-01-29T08:35:10.440Z,-0.5855
2023-01-29T08:36:10.500Z,-0.6147
2023-01-29T08:37:10.517Z,-0.6212
2023-01-29T08:38:10.549Z,-0.6506
2023-01-29T08:39:10.595Z,-0.6506
2023-01-29T08:40:10.625Z,-0.6481
2023-01-29T08:41:10.650Z,-0.6276
2023-01-29T08:42:10.700Z,-0.6424
2023-01-29T08:43:10.730Z,-0.6343
2023-01-29T08:44:10.757Z,-0.6343
2023-01-29T08:45:10.801Z,-0.649
2023-01-29T08:46:10.879Z,-0.649
2023-01-29T08:47:10.871Z,-0.6638
2023-01-29T08:48:10.894Z,-0.6787
2023-01-29T08:49:10.928Z,-0.6706
2023-01-29T08:50:10.957Z,-0.6855
2023-01-29T08:51:10.989Z,-0.6855
2023-01-29T08:52:11.028Z,-0.6981
2023-01-29T08:53:11.057Z,-0.68
2023-01-29T08:54:11.090Z,-0.68
2023-01-29T08:55:11.143Z,-0.7098
2023-01-29T08:56:11.161Z,-0.7019
2023-01-29T08:57:11.202Z,-0.7168
2023-01-29T08:58:11.239Z,-0.7317
2023-01-29T08:59:11.273Z,-0.7317
2023-01-29T09:00:11.306Z,-0.7168
2023-01-29T09:01:11.359Z,-0.7168
2023-01-29T09:02:11.385Z,-0.7317
2023-01-29T09:03:11.413Z,-0.7239
2023-01-29T09:04:11.452Z,-0.7016
2023-01-29T09:05:11.482Z,-0.6866
2023-01-29T09:06:11.527Z,-0.6866
2023-01-29T09:07:11.549Z,-0.6818
2023-01-29T09:08:11.585Z,-0.6968
2023-01-29T09:09:11.622Z,-0.6818
2023-01-29T09:10:11.659Z,-0.659
2023-01-29T09:11:11.712Z,-0.674
2023-01-29T09:12:11.733Z,-0.6559
2023-01-29T09:13:11.763Z,-0.686
2023-01-29T09:14:11.800Z,-0.6913
2023-01-29T09:15:11.830Z,-0.7366
2023-01-29T09:16:11.858Z,-0.7669
2023-01-29T09:17:11.900Z,-0.7821
2023-01-29T09:18:11.941Z,-0.7821
2023-01-29T09:19:11.965Z,-0.7593
2023-01-29T09:20:11.992Z,-0.7441
2023-01-29T09:21:12.039Z,-0.7745
2023-01-29T09:22:12.098Z,-0.7745
2023-01-29T09:23:12.110Z,-0.7897
2023-01-29T09:24:12.132Z,-0.7318
2023-01-29T09:25:12.180Z,-0.7471
2023-01-29T09:26:12.278Z,-0.73
2023-01-29T09:27:12.283Z,-0.7452
2023-01-29T09:28:12.280Z,-0.7605
2023-01-29T09:29:12.307Z,-0.7605
2023-01-29T09:30:12.344Z,-0.7758
2023-01-29T09:31:12.442Z,-0.7605
2023-01-29T09:32:12.426Z,-0.7452
2023-01-29T09:33:12.451Z,-0.7377
2023-01-29T09:34:12.480Z,-0.7577
2023-01-29T09:35:12.516Z,-0.7152
2023-01-29T09:36:12.570Z,-0.7379
2023-01-29T09:37:12.591Z,-0.7179
2023-01-29T09:38:12.638Z,-0.7332
2023-01-29T09:39:12.678Z,-0.735
2023-01-29T09:40:12.707Z,-0.7044
2023-01-29T09:41:12.748Z,-0.7044
2023-01-29T09:42:12.790Z,-0.6675
2023-01-29T09:43:12.812Z,-0.6753
2023-01-29T09:44:12.849Z,-0.6753
2023-01-29T09:45:12.880Z,-0.6753
2023-01-29T09:46:12.986Z,-0.706
2023-01-29T09:47:12.963Z,-0.6464
2023-01-29T09:48:12.974Z,-0.6464
2023-01-29T09:49:13.013Z,-0.5579
2023-01-29T09:50:13.047Z,-0.5154
2023-01-29T09:51:13.093Z,-0.5461
2023-01-29T09:52:13.132Z,-0.5681
2023-01-29T09:53:13.171Z,-0.5656
2023-01-29T09:54:13.192Z,-0.515
2023-01-29T09:55:13.239Z,-0.3954
2023-01-29T09:56:13.279Z,-0.3912
2023-01-29T09:57:13.297Z,-0.3334
2023-01-29T09:58:13.336Z,-0.3759
2023-01-29T09:59:13.369Z,-0.3914
2023-01-29T10:00:13.406Z,-0.3361
2023-01-29T10:01:13.545Z,-0.3337
2023-01-29T10:02:13.598Z,-0.3454
2023-01-29T10:03:13.540Z,-0.3767
2023-01-29T10:04:13.599Z,-0.391
2023-01-29T10:05:13.613Z,-0.391
2023-01-29T10:06:13.611Z,-0.373
2023-01-29T10:07:13.658Z,-0.4517
2023-01-29T10:08:13.696Z,-0.4079
2023-01-29T10:09:13.721Z,-0.4214
2023-01-29T10:10:13.749Z,-0.4202
2023-01-29T10:11:13.797Z,-0.4202
2023-01-29T10:12:13.862Z,-0.4022
2023-01-29T10:13:13.853Z,-0.3694
2023-01-29T10:14:13.917Z,-0.3379
2023-01-29T10:15:14.182Z,-0.3357
2023-01-29T10:16:13.969Z,-0.366
2023-01-29T10:17:14.061Z,-0.3311
2023-01-29T10:18:14.037Z,-0.3833
2023-01-29T10:19:14.062Z,-0.3675
2023-01-29T10:20:14.101Z,-0.32
2023-01-29T10:21:14.137Z,-0.3042
2023-01-29T10:22:14.174Z,-0.2884
2023-01-29T10:23:14.198Z,-0.3358
2023-01-29T10:24:14.239Z,-0.3042
2023-01-29T10:25:14.310Z,-0.2872
2023-01-29T10:26:14.393Z,-0.2838
2023-01-29T10:27:14.349Z,-0.2737
2023-01-29T10:28:14.380Z,-0.2208
2023-01-29T10:29:14.423Z,-0.153
2023-01-29T10:30:14.452Z,-0.153
2023-01-29T10:31:14.596Z,-0.02976
2023-01-29T10:32:14.571Z,0.02223
2023-01-29T10:33:14.577Z,0.06401
2023-01-29T10:34:14.605Z,0.116
2023-01-29T10:35:15.048Z,0.1598
2023-01-29T10:36:14.668Z,0.09596
2023-01-29T10:37:14.714Z,0.09694
2023-01-29T10:38:14.753Z,0.03278
2023-01-29T10:39:14.784Z,0.05543
2023-01-29T10:40:14.833Z,0.00711
2023-01-29T10:41:14.868Z,-0.05754
2023-01-29T10:42:14.903Z,-0.05754
2023-01-29T10:43:14.931Z,-0.05111
2023-01-29T10:44:14.971Z,-0.0187
2023-01-29T10:45:15.676Z,-0.01228
2023-01-29T10:46:15.037Z,-0.04471
2023-01-29T10:47:15.203Z,-0.03835
2023-01-29T10:48:15.104Z,-0.06551
2023-01-29T10:49:15.141Z,-0.08185
2023-01-29T10:50:15.172Z,-0.1473
2023-01-29T10:51:15.224Z,-0.1083
2023-01-29T10:52:15.281Z,-0.1083
2023-01-29T10:53:15.288Z,-0.1411
2023-01-29T10:54:15.329Z,-0.1679
2023-01-29T10:55:15.596Z,-0.2008
2023-01-29T10:56:22.695Z,-0.1783
2023-01-29T10:57:15.443Z,-0.16
2023-01-29T10:58:15.471Z,-0.1374
2023-01-29T10:59:15.523Z,-0.2203
2023-01-29T11:00:15.549Z,-0.2203
2023-01-29T11:01:15.593Z,-0.1978
2023-01-29T11:02:15.626Z,-0.2837
2023-01-29T11:03:27.107Z,-0.2611
2023-01-29T11:04:15.691Z,-0.2445
2023-01-29T11:05:15.979Z,-0.2278
2023-01-29T11:06:15.758Z,-0.1887
2023-01-29T11:07:15.807Z,-0.2731
2023-01-29T11:08:15.822Z,-0.2339
2023-01-29T11:09:15.855Z,-0.3187
2023-01-29T11:10:16.204Z,-0.3632
2023-01-29T11:11:15.929Z,-0.38
2023-01-29T11:12:15.968Z,-0.3584
2023-01-29T11:13:16.002Z,-0.4427
2023-01-29T11:14:16.080Z,-0.4934
2023-01-29T11:15:16.069Z,-0.5443
2023-01-29T11:16:16.108Z,-0.5103
2023-01-29T11:17:16.156Z,-0.454
2023-01-29T11:18:16.171Z,-0.4879
2023-01-29T11:19:16.218Z,-0.5048
2023-01-29T11:20:16.449Z,-0.5218
2023-01-29T11:21:16.272Z,-0.5558
2023-01-29T11:22:16.309Z,-0.6083
2023-01-29T11:23:16.342Z,-0.5912
2023-01-29T11:24:16.387Z,-0.6423
2023-01-29T11:25:16.466Z,-0.7279
2023-01-29T11:26:16.459Z,-0.6765
2023-01-29T11:27:16.504Z,-0.5858
2023-01-29T11:28:16.534Z,-0.5687
2023-01-29T11:29:16.567Z,-0.6553
2023-01-29T11:30:16.917Z,-0.6894
2023-01-29T11:31:16.715Z,-0.7407
2023-01-29T11:32:16.670Z,-0.6669
2023-01-29T11:33:16.708Z,-0.6498
2023-01-29T11:34:16.736Z,-0.6158
2023-01-29T11:35:16.780Z,-0.6328
2023-01-29T11:36:16.801Z,-0.7354
2023-01-29T11:37:16.866Z,-0.7869
2023-01-29T11:38:16.883Z,-0.7301
2023-01-29T11:39:16.913Z,-0.7869
2023-01-29T11:40:17.282Z,-0.7301
2023-01-29T11:41:16.987Z,-0.8162
2023-01-29T11:42:17.020Z,-0.8386
2023-01-29T11:43:17.049Z,-0.8036
2023-01-29T11:44:17.092Z,-0.7691
2023-01-29T11:45:17.119Z,-0.7697
2023-01-29T11:46:17.219Z,-0.7989
2023-01-29T11:47:17.184Z,-0.7989
2023-01-29T11:48:17.231Z,-0.7989
2023-01-29T11:49:20.880Z,-0.7817
2023-01-29T11:50:17.669Z,-0.8681
2023-01-29T11:51:17.333Z,-0.8677
2023-01-29T11:52:17.370Z,-0.8504
2023-01-29T11:53:17.409Z,-0.8504
2023-01-29T11:54:17.437Z,-0.8157
2023-01-29T11:55:17.475Z,-0.7812
2023-01-29T11:56:17.506Z,-0.7467
2023-01-29T11:57:19.351Z,-0.6736
2023-01-29T11:58:17.596Z,-0.6393
2023-01-29T11:59:17.615Z,-0.8111
2023-01-29T12:00:18.106Z,-0.8804
2023-01-29T12:01:17.685Z,-0.863
2023-01-29T12:02:17.726Z,-0.863
2023-01-29T12:03:17.748Z,-0.8284
2023-01-29T12:04:17.787Z,-0.7597
2023-01-29T12:05:17.828Z,-0.8808
2023-01-29T12:06:17.868Z,-0.8461
2023-01-29T12:07:17.889Z,-0.8288
2023-01-29T12:08:17.928Z,-0.8115
2023-01-29T12:09:17.954Z,-0.8288
2023-01-29T12:10:18.328Z,-0.8634
2023-01-29T12:11:18.043Z,-0.8461
2023-01-29T12:12:18.067Z,-0.8461
2023-01-29T12:13:18.108Z,-0.8808
2023-01-29T12:14:18.140Z,-0.8808
2023-01-29T12:15:18.169Z,-0.8808
2023-01-29T12:16:18.293Z,-0.8634
2023-01-29T12:17:18.243Z,-0.8975
2023-01-29T12:18:18.277Z,-0.9373
2023-01-29T12:19:18.321Z,-0.8803
2023-01-29T12:20:18.718Z,-0.9546
2023-01-29T12:21:18.383Z,-0.8854
2023-01-29T12:22:18.429Z,-0.8457